createdAt,value
2018-06-30T00:01:27.061Z,101659.41
2018-06-30T00:03:55.963Z,101659.42
2018-06-30T00:06:23.694Z,101656.17
2018-06-30T00:08:53.657Z,101651.88
2018-06-30T00:11:21.996Z,101657.53
2018-06-30T00:13:50.312Z,101658.23
2018-06-30T00:16:18.626Z,101659.91
2018-06-30T00:18:46.946Z,101658.84
2018-06-30T00:21:15.268Z,101661.72
2018-06-30T00:23:43.021Z,101658.69
2018-06-30T00:26:11.349Z,101656.87
2018-06-30T00:28:40.237Z,101655.63
2018-06-30T00:31:08.549Z,101657.21
2018-06-30T00:33:36.885Z,101654.27
2018-06-30T00:36:04.693Z,101655.88
2018-06-30T00:38:33.507Z,101653.77
2018-06-30T00:41:01.249Z,101652.06
2018-06-30T00:43:30.149Z,101653.31
2018-06-30T00:45:58.474Z,101654.96
2018-06-30T00:48:26.257Z,101651.38
2018-06-30T00:50:54.543Z,101649.45
2018-06-30T00:53:23.441Z,101654.78
2018-06-30T00:55:51.177Z,101650.87
2018-06-30T00:58:19.501Z,101651.70
2018-06-30T01:00:47.826Z,101653.58
2018-06-30T01:03:16.141Z,101651.84
2018-06-30T01:05:45.033Z,101651.94
2018-06-30T01:08:12.810Z,101652.52
2018-06-30T01:10:41.706Z,101651.53
2018-06-30T01:13:09.463Z,101651.08
2018-06-30T01:15:38.370Z,101651.31
2018-06-30T01:18:06.104Z,101649.95
2018-06-30T01:20:34.418Z,101651.23
2018-06-30T01:23:02.736Z,101652.09
2018-06-30T01:25:31.051Z,101646.96
2018-06-30T01:27:59.954Z,101651.85
2018-06-30T01:30:27.685Z,101653.95
2018-06-30T01:32:56.589Z,101652.80
2018-06-30T01:35:24.336Z,101655.18
2018-06-30T01:37:52.657Z,101655.27
2018-06-30T01:40:20.971Z,101657.90
2018-06-30T01:42:49.874Z,101655.38
2018-06-30T01:45:17.607Z,101657.39
2018-06-30T01:47:46.525Z,101653.94
2018-06-30T01:50:14.856Z,101653.36
2018-06-30T01:52:43.162Z,101656.50
2018-06-30T01:55:11.477Z,101654.13
2018-06-30T01:57:39.794Z,101647.73
2018-06-30T02:00:08.108Z,101647.26
2018-06-30T02:02:36.432Z,101648.77
2018-06-30T02:05:04.743Z,101643.61
2018-06-30T02:07:32.475Z,101646.42
2018-06-30T02:10:00.820Z,101648.50
2018-06-30T02:12:29.137Z,101647.37
2018-06-30T02:14:58.043Z,101649.02
2018-06-30T02:17:26.363Z,101646.56
2018-06-30T02:19:54.678Z,101653.52
2018-06-30T02:22:22.417Z,101655.83
2018-06-30T02:24:51.306Z,101653.58
2018-06-30T02:27:19.042Z,101657.30
2018-06-30T02:29:47.374Z,101655.69
2018-06-30T02:32:16.273Z,101654.16
2018-06-30T02:34:44.001Z,101661.05
2018-06-30T02:37:12.921Z,101656.20
2018-06-30T02:39:41.239Z,101660.11
2018-06-30T02:42:09.550Z,101655.70
2018-06-30T02:44:37.867Z,101658.52
2018-06-30T02:47:05.613Z,101660.90
2018-06-30T02:49:33.921Z,101664.72
2018-06-30T02:52:02.813Z,101655.46
2018-06-30T02:54:31.132Z,101663.16
2018-06-30T02:56:59.449Z,101665.50
2018-06-30T02:59:27.780Z,101664.05
2018-06-30T03:01:55.514Z,101660.73
2018-06-30T03:04:24.451Z,101656.20
2018-06-30T03:06:53.298Z,101653.77
2018-06-30T03:09:21.049Z,101659.05
2018-06-30T03:11:49.403Z,101657.48
2018-06-30T03:14:18.295Z,101655.42
2018-06-30T03:16:46.048Z,101652.44
2018-06-30T03:19:14.365Z,101659.59
2018-06-30T03:21:42.701Z,101659.99
2018-06-30T03:24:11.601Z,101660.70
2018-06-30T03:26:39.911Z,101661.86
2018-06-30T03:29:08.254Z,101657.79
2018-06-30T03:31:35.999Z,101660.94
2018-06-30T03:34:04.887Z,101666.31
2018-06-30T03:36:32.647Z,101668.08
2018-06-30T03:39:00.950Z,101670.18
2018-06-30T03:41:29.852Z,101665.94
2018-06-30T03:43:57.641Z,101677.95
2018-06-30T03:46:26.501Z,101677.70
2018-06-30T03:48:54.828Z,101678.89
2018-06-30T03:51:22.566Z,101679.38
2018-06-30T03:53:51.465Z,101682.23
2018-06-30T03:56:19.235Z,101678.93
2018-06-30T03:58:48.135Z,101679.90
2018-06-30T04:01:16.465Z,101678.19
2018-06-30T04:03:44.193Z,101678.09
2018-06-30T04:06:12.527Z,101679.80
2018-06-30T04:08:41.017Z,101679.34
2018-06-30T04:11:09.154Z,101683.72
2018-06-30T04:13:38.075Z,101676.98
2018-06-30T04:16:05.801Z,101676.02
2018-06-30T04:18:34.702Z,101677.08
2018-06-30T04:21:03.004Z,101675.82
2018-06-30T04:23:30.766Z,101678.86
2018-06-30T04:25:59.100Z,101677.25
2018-06-30T04:28:27.426Z,101681.18
2018-06-30T04:30:56.332Z,101678.47
2018-06-30T04:33:24.687Z,101680.86
2018-06-30T04:35:52.997Z,101678.93
2018-06-30T04:38:20.728Z,101677.89
2018-06-30T04:40:49.043Z,101685.14
2018-06-30T04:43:17.936Z,101688.52
2018-06-30T04:45:45.680Z,101692.20
2018-06-30T04:48:14.000Z,101688.13
2018-06-30T04:50:42.313Z,101688.45
2018-06-30T04:53:10.627Z,101694.23
2018-06-30T04:55:39.535Z,101695.51
2018-06-30T04:58:07.842Z,101708.22
2018-06-30T05:00:36.153Z,101709.02
2018-06-30T05:03:04.476Z,101709.19
2018-06-30T05:05:32.801Z,101711.98
2018-06-30T05:08:00.802Z,101714.13
2018-06-30T05:10:28.857Z,101711.52
2018-06-30T05:12:57.841Z,101723.33
2018-06-30T05:15:27.514Z,101719.83
2018-06-30T05:17:55.252Z,101727.19
2018-06-30T05:20:23.034Z,101716.48
2018-06-30T05:22:51.944Z,101721.34
2018-06-30T05:25:20.252Z,101723.27
2018-06-30T05:27:49.587Z,101717.19
2018-06-30T05:30:19.726Z,101721.41
2018-06-30T05:32:47.534Z,101732.48
2018-06-30T05:35:17.362Z,101735.09
2018-06-30T05:37:46.884Z,101728.05
2018-06-30T05:40:15.204Z,101741.84
2018-06-30T05:42:43.510Z,101737.92
2018-06-30T05:45:11.270Z,101735.45
2018-06-30T05:47:39.603Z,101735.02
2018-06-30T05:50:08.504Z,101732.54
2018-06-30T05:52:36.815Z,101739.88
2018-06-30T05:55:04.554Z,101741.29
2018-06-30T05:57:32.946Z,101748.51
2018-06-30T06:00:01.852Z,101734.14
2018-06-30T06:02:30.159Z,101740.09
2018-06-30T06:04:58.479Z,101740.15
2018-06-30T06:07:26.808Z,101743.39
2018-06-30T06:09:55.167Z,101748.45
2018-06-30T06:12:22.891Z,101757.10
2018-06-30T06:14:51.790Z,101759.40
2018-06-30T06:17:19.544Z,101770.19
2018-06-30T06:19:48.446Z,101766.91
2018-06-30T06:22:16.805Z,101758.27
2018-06-30T06:24:44.552Z,101756.87
2018-06-30T06:27:12.895Z,101756.11
2018-06-30T06:29:41.779Z,101756.80
2018-06-30T06:32:10.092Z,101758.94
2018-06-30T06:34:37.826Z,101760.23
2018-06-30T06:37:06.721Z,101761.44
2018-06-30T06:39:34.496Z,101757.43
2018-06-30T06:42:02.820Z,101766.59
2018-06-30T06:44:31.132Z,101756.97
2018-06-30T06:47:00.808Z,101757.88
2018-06-30T06:49:29.132Z,101768.60
2018-06-30T06:51:58.029Z,101763.57
2018-06-30T06:54:25.772Z,101759.63
2018-06-30T06:56:54.677Z,101766.83
2018-06-30T06:59:22.424Z,101763.22
2018-06-30T07:01:51.320Z,101761.23
2018-06-30T07:04:19.663Z,101763.30
2018-06-30T07:06:47.978Z,101751.14
2018-06-30T07:09:16.299Z,101746.55
2018-06-30T07:11:44.717Z,101752.61
2018-06-30T07:14:12.935Z,101743.17
2018-06-30T07:16:40.691Z,101737.04
2018-06-30T07:19:09.673Z,101725.17
2018-06-30T07:21:37.976Z,101742.30
2018-06-30T07:24:06.340Z,101743.25
2018-06-30T07:26:34.662Z,101728.31
2018-06-30T07:29:02.410Z,101748.75
2018-06-30T07:31:30.734Z,101743.53
2018-06-30T07:34:03.524Z,101743.41
2018-06-30T07:36:31.852Z,101754.59
2018-06-30T07:38:59.598Z,101758.88
2018-06-30T07:41:28.738Z,101758.84
2018-06-30T07:43:56.258Z,101755.03
2018-06-30T07:46:28.620Z,101751.19
2018-06-30T07:48:57.034Z,101756.52
2018-06-30T07:51:25.352Z,101751.81
2018-06-30T07:53:54.270Z,101763.69
2018-06-30T07:56:22.029Z,101757.91
2018-06-30T07:58:50.353Z,101770.59
2018-06-30T08:01:19.262Z,101761.05
2018-06-30T08:03:47.030Z,101767.15
2018-06-30T08:06:15.923Z,101770.00
2018-06-30T08:08:44.259Z,101766.64
2018-06-30T08:11:12.577Z,101773.88
2018-06-30T08:13:40.898Z,101773.05
2018-06-30T08:16:09.215Z,101775.81
2018-06-30T08:18:37.538Z,101770.17
2018-06-30T08:21:05.947Z,101765.46
2018-06-30T08:23:37.931Z,101759.83
2018-06-30T08:26:06.270Z,101774.88
2018-06-30T08:28:34.034Z,101777.21
2018-06-30T08:31:02.364Z,101784.05
2018-06-30T08:33:30.682Z,101772.16
2018-06-30T08:35:59.595Z,101773.78
2018-06-30T08:38:27.340Z,101777.16
2018-06-30T08:40:56.276Z,101777.81
2018-06-30T08:43:24.601Z,101777.73
2018-06-30T08:45:52.347Z,101774.70
2018-06-30T08:48:21.244Z,101769.70
2018-06-30T08:50:49.564Z,101779.03
2018-06-30T08:53:17.305Z,101782.13
2018-06-30T08:55:45.744Z,101778.92
2018-06-30T08:58:14.539Z,101794.81
2018-06-30T09:00:42.315Z,101795.97
2018-06-30T09:03:10.614Z,101798.89
2018-06-30T09:05:38.941Z,101797.28
2018-06-30T09:08:07.850Z,101799.44
2018-06-30T09:10:36.215Z,101789.61
2018-06-30T09:13:04.516Z,101773.55
2018-06-30T09:15:32.839Z,101792.74
2018-06-30T09:18:01.306Z,101801.17
2018-06-30T09:20:29.042Z,101804.51
2018-06-30T09:22:57.993Z,101807.94
2018-06-30T09:25:26.310Z,101800.55
2018-06-30T09:27:54.627Z,101798.42
2018-06-30T09:30:22.944Z,101807.29
2018-06-30T09:32:51.328Z,101804.19
2018-06-30T09:35:19.104Z,101810.27
2018-06-30T09:37:48.029Z,101798.91
2018-06-30T09:40:16.362Z,101805.27
2018-06-30T09:42:44.122Z,101801.88
2018-06-30T09:45:12.484Z,101808.80
2018-06-30T09:47:40.805Z,101801.98
2018-06-30T09:50:11.505Z,101796.58
2018-06-30T09:52:39.635Z,101801.34
2018-06-30T09:55:07.970Z,101812.70
2018-06-30T09:57:36.887Z,101802.34
2018-06-30T10:00:05.208Z,101809.23
2018-06-30T10:02:33.527Z,101809.70
2018-06-30T10:05:01.843Z,101807.58
2018-06-30T10:07:30.184Z,101811.00
2018-06-30T10:09:58.526Z,101811.53
2018-06-30T10:12:26.885Z,101802.25
2018-06-30T10:14:55.176Z,101785.87
2018-06-30T10:17:23.544Z,101790.41
2018-06-30T10:19:51.883Z,101797.92
2018-06-30T10:22:20.194Z,101796.67
2018-06-30T10:24:48.753Z,101797.70
2018-06-30T10:27:16.507Z,101801.34
2018-06-30T10:29:45.418Z,101801.05
2018-06-30T10:32:13.751Z,101801.77
2018-06-30T10:34:42.850Z,101800.33
2018-06-30T10:37:10.451Z,101806.56
2018-06-30T10:39:38.804Z,101808.33
2018-06-30T10:42:07.177Z,101801.02
2018-06-30T10:44:34.985Z,101806.81
2018-06-30T10:47:03.258Z,101812.31
2018-06-30T10:49:32.177Z,101806.02
2018-06-30T10:52:00.485Z,101802.53
2018-06-30T10:54:28.814Z,101791.92
2018-06-30T10:56:57.651Z,101804.38
2018-06-30T10:59:25.972Z,101805.15
2018-06-30T11:01:54.307Z,101813.37
2018-06-30T11:04:22.780Z,101813.10
2018-06-30T11:06:50.992Z,101810.47
2018-06-30T11:09:20.727Z,101805.45
2018-06-30T11:11:47.647Z,101801.91
2018-06-30T11:14:15.968Z,101806.03
2018-06-30T11:16:44.345Z,101810.27
2018-06-30T11:19:12.093Z,101806.81
2018-06-30T11:21:45.713Z,101809.90
2018-06-30T11:24:14.068Z,101813.92
2018-06-30T11:26:42.453Z,101808.75
2018-06-30T11:29:10.744Z,101808.47
2018-06-30T11:31:40.589Z,101811.28
2018-06-30T11:34:09.493Z,101809.68
2018-06-30T11:36:37.245Z,101814.32
2018-06-30T11:39:07.505Z,101813.54
2018-06-30T11:41:34.486Z,101816.92
2018-06-30T11:44:02.825Z,101814.03
2018-06-30T11:46:31.156Z,101819.02
2018-06-30T11:48:59.481Z,101813.77
2018-06-30T11:51:27.237Z,101813.17
2018-06-30T11:53:56.170Z,101803.81
2018-06-30T11:56:24.730Z,101811.16
2018-06-30T11:58:52.833Z,101815.37
2018-06-30T12:01:21.165Z,101813.30
2018-06-30T12:03:48.923Z,101814.55
2018-06-30T12:06:18.610Z,101819.81
2018-06-30T12:08:46.192Z,101827.74
2018-06-30T12:11:13.932Z,101824.53
2018-06-30T12:13:42.843Z,101829.50
2018-06-30T12:16:11.181Z,101818.27
2018-06-30T12:18:39.514Z,101826.11
2018-06-30T12:21:07.906Z,101825.45
2018-06-30T12:23:36.241Z,101825.38
2018-06-30T12:26:04.576Z,101830.39
2018-06-30T12:28:33.710Z,101821.95
2018-06-30T12:31:02.034Z,101823.84
2018-06-30T12:33:30.363Z,101818.45
2018-06-30T12:35:58.691Z,101820.63
2018-06-30T12:38:27.622Z,101833.83
2018-06-30T12:41:24.168Z,101818.95
2018-06-30T12:43:52.539Z,101817.44
2018-06-30T12:46:20.845Z,101810.65
2018-06-30T12:48:49.758Z,101828.23
2018-06-30T12:51:17.310Z,101823.86
2018-06-30T12:53:46.437Z,101814.02
2018-06-30T12:56:14.545Z,101816.64
2018-06-30T12:58:42.881Z,101807.51
2018-06-30T13:01:18.694Z,101811.07
2018-06-30T13:03:43.990Z,101820.02
2018-06-30T13:06:12.994Z,101818.91
2018-06-30T13:08:41.254Z,101817.86
2018-06-30T13:11:09.587Z,101820.55
2018-06-30T13:13:37.933Z,101822.25
2018-06-30T13:16:06.479Z,101822.06
2018-06-30T13:18:34.840Z,101824.42
2018-06-30T13:21:03.144Z,101810.17
2018-06-30T13:23:31.462Z,101819.28
2018-06-30T13:25:59.208Z,101824.16
2018-06-30T13:28:27.534Z,101831.16
2018-06-30T13:30:55.865Z,101828.73
2018-06-30T13:33:24.788Z,101821.94
2018-06-30T13:35:53.103Z,101822.70
2018-06-30T13:38:20.852Z,101830.02
2018-06-30T13:40:50.267Z,101824.50
2018-06-30T13:43:18.609Z,101828.41
2018-06-30T13:45:47.551Z,101829.12
2018-06-30T13:48:15.648Z,101823.25
2018-06-30T13:50:44.142Z,101826.67
2018-06-30T13:53:12.512Z,101831.64
2018-06-30T13:55:41.039Z,101829.39
2018-06-30T13:58:10.195Z,101831.38
2018-06-30T14:00:38.296Z,101842.47
2018-06-30T14:03:06.622Z,101840.16
2018-06-30T14:05:36.382Z,101835.08
2018-06-30T14:08:04.692Z,101833.44
2018-06-30T14:10:33.026Z,101822.12
2018-06-30T14:13:01.363Z,101831.88
2018-06-30T14:15:29.150Z,101838.14
2018-06-30T14:17:58.080Z,101830.45
2018-06-30T14:20:26.399Z,101834.13
2018-06-30T14:22:54.720Z,101824.62
2018-06-30T14:25:22.466Z,101832.09
2018-06-30T14:27:51.438Z,101825.61
2018-06-30T14:30:19.764Z,101823.87
2018-06-30T14:38:43.313Z,101840.72
2018-06-30T14:41:14.181Z,101839.77
2018-06-30T14:43:40.536Z,101829.47
2018-06-30T14:46:09.577Z,101837.04
2018-06-30T14:48:56.062Z,101843.37
2018-06-30T14:51:43.996Z,101830.09
2018-06-30T14:54:21.597Z,101832.77
2018-06-30T14:56:53.019Z,101838.26
2018-06-30T14:59:24.714Z,101846.36
2018-06-30T15:01:53.870Z,101841.20
2018-06-30T15:04:25.765Z,101841.58
2018-06-30T15:06:53.033Z,101834.13
2018-06-30T15:09:21.571Z,101834.44
2018-06-30T15:11:52.607Z,101827.41
2018-06-30T15:14:20.953Z,101826.91
2018-06-30T15:16:50.720Z,101823.56
2018-06-30T15:19:19.876Z,101831.08
2018-06-30T15:21:47.979Z,101828.06
2018-06-30T15:24:16.396Z,101833.53
2018-06-30T15:26:51.187Z,101833.00
2018-06-30T15:29:19.477Z,101830.22
2018-06-30T15:31:47.853Z,101831.78
2018-06-30T15:34:16.381Z,101838.58
2018-06-30T15:36:44.617Z,101832.52
2018-06-30T15:39:13.125Z,101836.86
2018-06-30T15:41:41.474Z,101834.77
2018-06-30T15:44:10.153Z,101830.94
2018-06-30T15:46:46.643Z,101827.83
2018-06-30T15:49:14.199Z,101836.67
2018-06-30T15:51:42.977Z,101831.78
2018-06-30T15:54:15.600Z,101842.32
2018-06-30T15:56:43.038Z,101839.20
2018-06-30T15:59:10.853Z,101839.50
2018-06-30T16:01:39.139Z,101831.25
2018-06-30T16:04:10.910Z,101831.58
2018-06-30T16:06:39.261Z,101827.45
2018-06-30T16:09:09.289Z,101832.98
2018-06-30T16:11:38.185Z,101836.47
2018-06-30T16:14:06.507Z,101835.18
2018-06-30T16:16:34.842Z,101839.92
2018-06-30T16:19:02.596Z,101843.28
2018-06-30T16:21:31.500Z,101844.84
2018-06-30T16:24:05.550Z,101837.50
2018-06-30T16:26:37.633Z,101840.11
2018-06-30T16:31:52.769Z,101839.31
2018-06-30T16:34:20.151Z,101842.31
2018-06-30T16:36:48.291Z,101847.09
2018-06-30T16:39:16.609Z,101844.35
2018-06-30T16:41:44.942Z,101848.59
2018-06-30T16:44:12.732Z,101841.36
2018-06-30T16:46:41.046Z,101845.27
2018-06-30T16:49:10.344Z,101846.28
2018-06-30T16:51:38.666Z,101845.23
2018-06-30T16:54:07.057Z,101841.62
2018-06-30T16:56:35.396Z,101841.21
2018-06-30T16:59:03.720Z,101841.04
2018-06-30T17:01:32.618Z,101836.19
2018-06-30T17:04:00.940Z,101840.17
2018-06-30T17:06:29.263Z,101834.55
2018-06-30T17:08:57.816Z,101835.20
2018-06-30T17:11:26.505Z,101831.58
2018-06-30T17:13:55.547Z,101834.42
2018-06-30T17:16:26.455Z,101832.27
2018-06-30T17:18:54.816Z,101827.55
2018-06-30T17:21:24.530Z,101820.28
2018-06-30T17:23:52.784Z,101841.46
2018-06-30T17:26:22.827Z,101840.00
2018-06-30T17:28:51.321Z,101832.60
2018-06-30T17:31:19.977Z,101830.77
2018-06-30T17:33:48.943Z,101830.95
2018-06-30T17:36:17.393Z,101829.77
2018-06-30T17:38:47.483Z,101833.17
2018-06-30T17:41:16.548Z,101827.69
2018-06-30T17:43:44.973Z,101828.48
2018-06-30T17:46:17.518Z,101827.70
2018-06-30T17:48:51.361Z,101824.70
2018-06-30T17:51:31.844Z,101827.73
2018-06-30T17:53:51.593Z,101824.23
2018-06-30T17:56:27.999Z,101822.64
2018-06-30T17:58:57.439Z,101820.10
2018-06-30T18:01:24.900Z,101833.79
2018-06-30T18:03:54.588Z,101826.55
2018-06-30T18:06:22.993Z,101825.69
2018-06-30T18:08:52.444Z,101833.57
2018-06-30T18:11:20.366Z,101832.20
2018-06-30T18:13:48.744Z,101830.28
2018-06-30T18:16:17.108Z,101830.58
2018-06-30T18:18:46.001Z,101833.95
2018-06-30T18:21:14.363Z,101834.50
2018-06-30T18:23:42.753Z,101830.27
2018-06-30T18:26:11.085Z,101832.57
2018-06-30T18:28:42.663Z,101827.89
2018-06-30T18:31:15.000Z,101827.06
2018-06-30T18:33:42.348Z,101834.70
2018-06-30T18:36:10.725Z,101835.86
2018-06-30T18:41:24.010Z,101830.78
2018-06-30T18:43:52.405Z,101839.36
2018-06-30T18:46:20.157Z,101834.38
2018-06-30T18:48:49.067Z,101836.81
2018-06-30T18:51:17.625Z,101830.37
2018-06-30T18:53:45.965Z,101832.17
2018-06-30T18:56:14.133Z,101834.38
2018-06-30T18:58:42.452Z,101835.68
2018-06-30T19:01:10.839Z,101837.58
2018-06-30T19:03:39.455Z,101839.58
2018-06-30T19:06:07.606Z,101838.78
2018-06-30T19:08:35.922Z,101842.28
2018-06-30T19:11:07.289Z,101839.59
2018-06-30T19:13:35.666Z,101842.89
2018-06-30T19:16:03.995Z,101848.33
2018-06-30T19:18:32.560Z,101854.40
2018-06-30T19:21:00.671Z,101857.63
2018-06-30T19:23:28.427Z,101855.16
2018-06-30T19:25:57.396Z,101861.78
2018-06-30T19:28:25.731Z,101859.29
2018-06-30T19:30:54.069Z,101858.11
2018-06-30T19:33:22.405Z,101850.48
2018-06-30T19:35:50.223Z,101850.37
2018-06-30T19:40:54.347Z,101848.55
2018-06-30T19:43:23.288Z,101845.30
2018-06-30T19:45:55.318Z,101854.56
2018-06-30T19:48:23.853Z,101854.36
2018-06-30T19:50:52.353Z,101848.88
2018-06-30T19:53:24.896Z,101854.03
2018-06-30T19:55:52.323Z,101859.42
2018-06-30T19:58:35.695Z,101855.11
2018-06-30T20:01:07.335Z,101854.75
2018-06-30T20:06:38.002Z,101846.50
2018-06-30T20:23:02.327Z,101844.86
2018-06-30T20:25:30.641Z,101845.11
2018-06-30T20:27:59.543Z,101850.95
2018-06-30T20:30:27.882Z,101850.77
2018-06-30T20:32:56.213Z,101840.48
2018-06-30T20:35:37.580Z,101841.89
2018-06-30T20:38:05.974Z,101844.09
2018-06-30T20:40:34.343Z,101841.02
2018-06-30T20:43:02.896Z,101844.92
2018-06-30T20:45:31.553Z,101839.60
2018-06-30T20:48:00.617Z,101841.31
2018-06-30T20:50:28.964Z,101843.69
2018-06-30T20:52:57.334Z,101844.48
2018-06-30T20:55:25.825Z,101834.06
2018-06-30T20:57:54.098Z,101839.75
2018-06-30T21:00:22.478Z,101838.44
2018-06-30T21:02:50.877Z,101840.80
2018-06-30T21:05:19.469Z,101844.13
2018-06-30T21:07:47.893Z,101838.77
2018-06-30T21:10:16.622Z,101837.42
2018-06-30T21:12:45.093Z,101836.59
2018-06-30T21:15:13.379Z,101842.22
2018-06-30T21:17:41.798Z,101840.21
2018-06-30T21:20:10.519Z,101845.17
2018-06-30T21:22:52.364Z,101842.85
2018-06-30T21:25:20.919Z,101843.63
2018-06-30T21:27:49.311Z,101841.94
2018-06-30T21:30:18.893Z,101844.25
2018-06-30T21:32:47.461Z,101842.30
2018-06-30T21:35:15.598Z,101849.30
2018-06-30T21:37:43.934Z,101843.00
2018-06-30T21:40:24.162Z,101840.84
2018-06-30T21:42:46.242Z,101839.63
2018-06-30T21:45:15.083Z,101840.98
2018-06-30T21:47:43.923Z,101840.64
2018-06-30T21:50:12.504Z,101839.53
2018-06-30T21:52:40.567Z,101840.45
2018-06-30T21:55:08.339Z,101840.03
2018-06-30T21:57:37.283Z,101836.22
2018-06-30T22:00:14.649Z,101838.53
2018-06-30T22:02:42.975Z,101838.67
2018-06-30T22:05:11.331Z,101839.03
2018-06-30T22:07:39.691Z,101841.91
2018-06-30T22:10:08.047Z,101839.26
2018-06-30T22:12:35.832Z,101842.27
2018-06-30T22:15:04.724Z,101841.19
2018-06-30T22:17:59.906Z,101837.02
2018-06-30T22:20:28.271Z,101839.47
2018-06-30T22:22:56.670Z,101836.53
2018-06-30T22:25:24.995Z,101840.47
2018-06-30T22:27:53.315Z,101841.64
2018-06-30T22:30:21.650Z,101839.66
2018-06-30T22:32:49.991Z,101844.34
2018-06-30T22:35:18.413Z,101842.83
2018-06-30T22:37:46.733Z,101842.55
2018-06-30T22:40:14.493Z,101843.06
2018-06-30T22:42:43.411Z,101837.02
2018-06-30T22:45:11.728Z,101838.91
2018-06-30T22:47:40.084Z,101834.13
2018-06-30T22:50:08.417Z,101837.06
2018-06-30T22:52:36.737Z,101837.48
2018-06-30T22:55:05.071Z,101839.16
2018-06-30T22:57:33.475Z,101835.11
2018-06-30T23:00:01.854Z,101833.22
2018-06-30T23:02:29.662Z,101834.80
2018-06-30T23:04:57.984Z,101832.89
2018-06-30T23:07:26.896Z,101832.84
2018-06-30T23:09:55.272Z,101834.03
2018-06-30T23:12:23.608Z,101827.13
2018-06-30T23:14:51.947Z,101820.72
2018-06-30T23:17:19.743Z,101822.90
2018-06-30T23:19:48.700Z,101829.09
2018-06-30T23:22:17.244Z,101828.94
2018-06-30T23:24:45.358Z,101829.63
2018-06-30T23:27:13.097Z,101831.83
2018-06-30T23:29:42.050Z,101829.80
2018-06-30T23:32:10.752Z,101830.88
2018-06-30T23:34:39.071Z,101828.34
2018-06-30T23:37:07.441Z,101833.55
2018-06-30T23:39:35.789Z,101835.94
2018-06-30T23:42:04.210Z,101830.39
2018-06-30T23:44:32.545Z,101832.48
2018-06-30T23:47:00.860Z,101834.84
2018-06-30T23:49:29.220Z,101832.16
2018-06-30T23:51:57.786Z,101833.53
2018-06-30T23:54:25.290Z,101829.55
2018-06-30T23:56:54.213Z,101825.59
2018-06-30T23:59:22.541Z,101823.79
